Flight Track Log - Related Links

Times and Time Zones

All times are in EDT time to prevent confusion due to time zone crossing. See the QXE2397 flight status page for this flight to view local times or setup timezone preferences in your user account.

Time Position Orientation Groundspeed Altitude Reporting Facility
EDT Latitude Longitude Course Direction KTS MPH feet Rate Location/Type
Wed 09:40:00 PM 47.2020 -114.6508 294° West  Level FlightAware Approximate
Wed 09:41:00 PM 47.2320 -114.7627 296° West  Level FlightAware Approximate
Wed 09:42:00 PM 47.2675 -114.8724 282° West  Level FlightAware Approximate
Wed 09:43:00 PM 47.2856 -114.9910 294° West  Level FlightAware Approximate
Wed 09:44:00 PM 47.3191 -115.1024 294° West  Level FlightAware Approximate
Wed 09:45:00 PM 47.3482 -115.2164 288° West  Level FlightAware Approximate
Wed 09:46:00 PM 47.3740 -115.3323 288° West  Level FlightAware Approximate
Wed 09:47:00 PM 47.3996 -115.4483 288° West  Level FlightAware Approximate
Wed 09:48:00 PM 47.4305 -115.5616 292° West  Level FlightAware Approximate
Wed 09:49:00 PM 47.4500 -115.6781 270° West  Level FlightAware Approximate
Wed 09:50:00 PM 47.4570 -115.7999 275° West  Level FlightAware Approximate
Wed 09:51:00 PM 47.4641 -115.9216 275° West  Level FlightAware Approximate
Wed 09:52:00 PM 47.4711 -116.0434 275° West  Level FlightAware Approximate
Wed 09:53:00 PM 47.4780 -116.1652 275° West  Level FlightAware Approximate
Wed 09:54:00 PM 47.4848 -116.2871 275° West  Level FlightAware Approximate
Wed 09:55:00 PM 47.4914 -116.4090 275° West  Level FlightAware Approximate
Wed 09:56:00 PM 47.4979 -116.5309 275° West  Level FlightAware Approximate
Wed 09:57:00 PM 47.5043 -116.6528 274° West  Level FlightAware Approximate
Wed 09:58:00 PM 47.5105 -116.7748 274° West  Level FlightAware Approximate
Wed 09:59:00 PM 47.5166 -116.8968 274° West  Level FlightAware Approximate
Wed 10:00:00 PM 47.5226 -117.0188 274° West  Level FlightAware Approximate
Wed 10:01:00 PM 47.5284 -117.1409 274° West  Level FlightAware Approximate
Wed 10:02:00 PM 47.5342 -117.2629 274° West  Level FlightAware Approximate
Wed 10:03:00 PM 47.5397 -117.3851 274° West  Level FlightAware Approximate
Wed 10:04:00 PM 47.5452 -117.5072 274° West  Level FlightAware Approximate
Wed 10:05:00 PM 47.5514 -117.6292 279° West  Level FlightAware Approximate
Wed 10:06:00 PM 47.5649 -117.7500 279° West  Level FlightAware Approximate
Wed 10:07:00 PM 47.5783 -117.8708 279° West  Level FlightAware Approximate
Wed 10:08:00 PM 47.5902 -117.9920 278° West  Level FlightAware Approximate
Wed 10:09:00 PM 47.6013 -118.1134 278° West  Level FlightAware Approximate
Wed 10:10:00 PM 47.6122 -118.2349 278° West  Level FlightAware Approximate
Wed 10:11:00 PM 47.6230 -118.3565 278° West  Level FlightAware Approximate
Wed 10:12:00 PM 47.6336 -118.4780 277° West  Level FlightAware Approximate
Wed 10:13:00 PM 47.6442 -118.5997 277° West  Level FlightAware Approximate
Wed 10:14:00 PM 47.6546 -118.7213 277° West  Level FlightAware Approximate
Wed 10:15:00 PM 47.6648 -118.8431 277° West  Level FlightAware Approximate
Wed 10:16:00 PM 47.6749 -118.9639 277° West  Level FlightAware Approximate
Wed 10:17:00 PM 47.6848 -119.0847 277° West  Level FlightAware Approximate
Wed 10:18:00 PM 47.6946 -119.2056 277° West  Level FlightAware Approximate
Wed 10:19:00 PM 47.7043 -119.3265 277° West  Level FlightAware Approximate
Wed 10:20:00 PM 47.7139 -119.4475 277° West  Level FlightAware Approximate
Wed 10:21:00 PM 47.7234 -119.5685 277° West  Level FlightAware Approximate
Wed 10:22:00 PM 47.7329 -119.6895 277° West  Level FlightAware Approximate
Wed 10:23:00 PM 47.7423 -119.8106 277° West  Level FlightAware Approximate
Wed 10:24:00 PM 47.7516 -119.9317 277° West  Level FlightAware Approximate
Wed 10:25:00 PM 47.7607 -120.0528 276° West  Level FlightAware Approximate
Wed 10:26:00 PM 47.7789 -120.1700 296° West  Level FlightAware Approximate
Wed 10:27:00 PM 47.7834 -120.2904 270° West  Level FlightAware Approximate
Wed 10:28:00 PM 47.7905 -120.4117 278° West  Level FlightAware Approximate
Wed 10:29:00 PM 47.8011 -120.5327 276° West  Level FlightAware Approximate
Wed 10:30:00 PM 47.8092 -120.6541 276° West  Level FlightAware Approximate
Wed 10:31:00 PM 47.8167 -120.7756 270° West  Level FlightAware Approximate
Wed 10:32:00 PM 47.8262 -120.8968 277° West  Level FlightAware Approximate
Wed 10:33:00 PM 47.8333 -121.0182 270° West  Level FlightAware Approximate
Wed 10:34:00 PM 47.8445 -121.1388 281° West  Level FlightAware Approximate
Wed 10:35:00 PM 47.8555 -121.2597 276° West  Level FlightAware Approximate
Wed 10:36:00 PM 47.8642 -121.3812 276° West  Level FlightAware Approximate
Wed 10:37:00 PM 47.8725 -121.5027 276° West  Level FlightAware Approximate
Wed 10:38:00 PM 47.8806 -121.6243 276° West  Level FlightAware Approximate
Wed 10:39:00 PM 47.8575 -121.7258 214° Southwest  Level FlightAware Approximate
Wed 10:40:00 PM 47.7978 -121.8124 270° West  Level Estimated
Wed 10:41:00 PM 47.7381 -121.8989 222° Southwest  Level Estimated
Wed 10:42:00 PM 47.6750 -121.9799 221° Southwest  Level FlightAware Approximate
Wed 10:43:00 PM 47.6161 -122.0673 214° Southwest  Level Estimated
Wed 10:44:00 PM 47.5570 -122.1544 228° Southwest  Level Estimated
Wed 10:45:00 PM 47.4979 -122.2414 222° Southwest  Level Estimated
Wed 10:46:00 PM 47.4499 -122.3118 222° Southwest  Level Estimated
Wed 10:47:00 PM 47.4499 -122.3118 222° Southwest  Level Estimated
Wed 10:48:00 PM 47.4499 -122.3118 222° Southwest  Level Estimated
Wed 10:49:00 PM 47.4499 -122.3118 222° Southwest  Level Estimated
Wed 10:50:00 PM 47.4499 -122.3118 222° Southwest  Level Estimated
Wed 10:51:00 PM 47.4499 -122.3118 222° Southwest  Level Estimated
Wed 10:52:00 PM 47.4499 -122.3118 222° Southwest  Level Estimated
Wed 10:53:00 PM 47.4499 -122.3118 222° Southwest  Level Estimated
Wed 10:54:00 PM 47.4499 -122.3118 222° Southwest  Level Estimated
Wed 10:55:00 PM 47.4499 -122.3118 222° Southwest  Level Estimated
Wed 10:56:00 PM 47.4499 -122.3118 222° Southwest  Level Estimated
Wed 10:57:00 PM 47.4499 -122.3118 222° Southwest  Level Estimated
Wed 10:58:00 PM 47.4499 -122.3118 222° Southwest  Level Estimated
Wed 10:59:00 PM 47.4499 -122.3118 222° Southwest  Level Estimated
Wed 11:00:00 PM 47.4499 -122.3118 222° Southwest  Level Estimated
Wed 11:01:00 PM 47.4499 -122.3118 222° Southwest  Level Estimated

Login

Don't have an account? Register now (free) for customized features, flight alerts, and more!